Hauptseite
METAR-TAF:

METAR-TAF

Flughäfen :

Flugplatz Hamburg-Finkenwerder

Finkenwerder, Deutschland

Breite: 53-32N, Länge: 009-50E, Höhe: 5 m

Beobachtung

Neuester Wetterbericht von vor 29 Minuten, um 20:50 UTC
Wind 7 kt aus Nordwest
Temperatur 10°C
Luftfeuchtigkeit 82%
Luftdruck 1013 hPa
Sichtweite: 8000 m

METAR: EDHI 182050Z AUTO 31007KT 8000 // NCD 10/07 Q1013

Zeit: 23:19 (21:19 UTC)

Prognose

Neuester Wetterbericht von vor 4 Stunden und 19 Minuten, um 17:00 UTC
Gültige Prognose vom 18 um 18 UTC bis 18 um 21 UTC
Wind 5 kt aus West
Sichtweite 10 km oder mehr
Aufgelockert bewölkt in der Höhe von 4000 ft

TAF: EDHI 181700Z 1818/1821 28005KT 9999 SCT040

Wetterbeobachtungen und Prognosen von mehr als 4000 Flughäfen (METAR und TAF Bericht).

Die verfügbaren Stationen werden durch gelbe und rote Markierungen auf der Karte dargestellt.

Führen Sie die Maus auf sie, um den Namen der Station zu sehen.

Darauf klicken, um die Beobachtung von Wetterbeobachtungen und Prognosen zu sehen.

Um die Karte zu ändern : klicken Sie auf den grünen Tasten mit einem schwarzen Kreuz Zum Vergrößern, auf den grünen Button mit einem Gedankenstrich zu verkleinern, oder auf die grünen Pfeile für benachbarte Karten.


METAR-TAF: